Time;durP1;ratioP1;P1;durP2;ratioP2;P2;SDS_P1;SDS_P2;PMS_P1;PMS_P2;Temp;Humidity;BMP_temperature;BMP_pressure;BME280_temperature;BME280_humidity;BME280_pressure;Samples;Min_cycle;Max_cycle;Signal;HPM_P1;HPM_P2
2022/05/13 00:00:11;;;;;;;9.07;4.47;;;;;;;20.69;61.05;100356.75;4437539;32;20090;-66
2022/05/13 00:02:40;;;;;;;15.20;6.45;;;;;;;20.70;60.02;100355.78;4437651;32;20160;-65
2022/05/13 00:05:08;;;;;;;10.73;5.25;;;;;;;20.67;61.46;100352.41;4437446;32;20119;-65
2022/05/13 00:07:35;;;;;;;11.55;5.37;;;;;;;20.61;61.66;100360.81;4437433;32;20123;-65
2022/05/13 00:10:06;;;;;;;8.10;4.37;;;;;;;20.58;60.73;100366.31;4437462;32;20127;-66
2022/05/13 00:12:40;;;;;;;10.05;4.87;;;;;;;20.58;60.68;100366.31;4437300;32;20508;-66
2022/05/13 00:15:15;;;;;;;10.13;4.70;;;;;;;20.57;62.47;100359.25;4437233;32;20520;-66
2022/05/13 00:17:42;;;;;;;13.32;4.70;;;;;;;20.54;62.36;100362.94;4437833;32;20397;-65
2022/05/13 00:20:11;;;;;;;5.70;3.37;;;;;;;20.57;61.24;100361.91;4439807;32;20464;-66
2022/05/13 00:22:48;;;;;;;10.05;3.22;;;;;;;20.57;61.00;100369.94;4439655;32;20121;-65
2022/05/13 00:25:19;;;;;;;5.65;4.18;;;;;;;20.51;63.88;100371.12;4469774;32;20106;-65
2022/05/13 00:27:46;;;;;;;5.65;3.37;;;;;;;20.44;62.90;100380.41;4470915;32;20084;-66
2022/05/13 00:30:14;;;;;;;8.15;3.15;;;;;;;20.45;62.56;100390.16;4470684;32;20096;-65
2022/05/13 00:32:44;;;;;;;4.40;3.33;;;;;;;20.46;62.50;100383.84;4470666;32;20092;-66
2022/05/13 00:35:12;;;;;;;4.37;3.20;;;;;;;20.39;62.63;100386.00;4470684;32;20080;-66
2022/05/13 00:37:39;;;;;;;6.53;3.53;;;;;;;20.35;64.57;100379.06;4470682;32;20456;-66
2022/05/13 00:40:07;;;;;;;7.90;3.55;;;;;;;20.29;63.60;100374.06;4470476;32;20579;-65
2022/05/13 00:42:35;;;;;;;3.65;3.28;;;;;;;20.32;65.43;100376.56;4470656;32;20428;-65
2022/05/13 00:45:03;;;;;;;6.47;3.35;;;;;;;20.29;65.33;100374.91;4470547;32;20429;-65
2022/05/13 00:47:30;;;;;;;4.68;3.40;;;;;;;20.30;65.47;100386.47;4470554;32;20084;-65
2022/05/13 00:49:59;;;;;;;8.82;3.78;;;;;;;20.36;65.48;100386.16;4470677;32;20131;-65
2022/05/13 00:52:27;;;;;;;7.12;3.35;;;;;;;20.40;64.96;100390.41;4470518;32;20131;-66
2022/05/13 00:54:55;;;;;;;7.35;3.40;;;;;;;20.40;64.66;100384.19;4470672;32;20112;-65
2022/05/13 00:57:22;;;;;;;6.72;3.08;;;;;;;20.35;64.77;100379.06;4470689;32;20152;-66
2022/05/13 00:59:51;;;;;;;3.65;3.20;;;;;;;20.30;64.87;100384.66;4470584;32;20165;-65
2022/05/13 01:02:18;;;;;;;5.03;3.78;;;;;;;20.36;64.37;100380.81;4470422;32;20164;-65
2022/05/13 01:04:47;;;;;;;3.72;3.42;;;;;;;20.35;66.35;100373.69;4470418;32;20081;-65
2022/05/13 01:07:21;;;;;;;6.55;3.12;;;;;;;20.35;63.52;100372.84;4470441;32;20460;-66
2022/05/13 01:09:56;;;;;;;4.18;2.72;;;;;;;20.39;61.75;100382.44;4470470;32;20396;-66
2022/05/13 01:12:29;;;;;;;4.62;2.67;;;;;;;20.40;61.51;100385.03;4470373;32;20539;-65
2022/05/13 01:15:00;;;;;;;3.42;2.97;;;;;;;20.46;63.80;100373.13;4470624;32;20103;-66
2022/05/13 01:20:24;;;;;;;5.75;2.78;;;;;;;20.35;63.94;100360.31;4470483;32;20088;-65
2022/05/13 01:22:55;;;;;;;5.22;2.60;;;;;;;20.29;62.84;100364.22;4470454;32;20108;-65
2022/05/13 01:25:26;;;;;;;4.18;2.30;;;;;;;20.28;63.33;100362.47;4470325;32;20486;-66
2022/05/13 01:27:55;;;;;;;3.22;2.40;;;;;;;20.26;62.29;100359.00;4470567;32;20768;-65
2022/05/13 01:30:27;;;;;;;2.30;2.12;;;;;;;20.33;61.78;100358.69;4469077;32;20412;-65
2022/05/13 01:32:54;;;;;;;3.17;2.75;;;;;;;20.33;61.65;100370.25;4470256;32;20191;-65
2022/05/13 01:35:21;;;;;;;2.95;2.65;;;;;;;20.26;61.44;100371.53;4470556;32;20452;-66
2022/05/13 01:37:50;;;;;;;4.55;2.65;;;;;;;20.26;61.30;100368.84;4470355;32;20418;-66
2022/05/13 01:40:17;;;;;;;6.18;2.80;;;;;;;20.17;61.89;100366.66;4470309;32;20099;-66
2022/05/13 01:42:45;;;;;;;2.80;2.60;;;;;;;20.16;61.19;100363.09;4470307;32;20613;-66
2022/05/13 01:45:12;;;;;;;8.82;2.35;;;;;;;20.17;62.80;100362.16;4470355;32;20481;-65
2022/05/13 01:47:39;;;;;;;4.40;2.22;;;;;;;20.14;61.56;100359.66;4470370;32;20114;-66
2022/05/13 01:50:07;;;;;;;5.32;2.62;;;;;;;20.17;60.99;100361.28;4470166;32;20178;-66
2022/05/13 01:52:35;;;;;;;2.30;2.10;;;;;;;20.18;60.25;100361.22;4470102;32;20429;-66
2022/05/13 01:55:02;;;;;;;5.60;2.20;;;;;;;20.21;59.77;100355.72;4470128;32;20088;-65
2022/05/13 01:57:29;;;;;;;4.35;2.60;;;;;;;20.21;60.88;100355.72;4470138;32;20088;-66
2022/05/13 01:59:57;;;;;;;4.35;2.35;;;;;;;20.19;61.79;100356.75;4470136;32;20171;-65
2022/05/13 02:02:24;;;;;;;3.25;2.50;;;;;;;20.12;60.94;100358.87;4470146;32;20123;-66
2022/05/13 02:04:51;;;;;;;2.35;2.00;;;;;;;20.08;62.20;100359.13;4470079;32;20080;-66
2022/05/13 02:07:18;;;;;;;5.53;2.40;;;;;;;20.06;60.96;100361.84;4470250;32;20452;-66
2022/05/13 02:09:45;;;;;;;7.70;2.33;;;;;;;20.17;60.50;100361.28;4470030;32;20116;-66
2022/05/13 02:12:13;;;;;;;5.45;2.03;;;;;;;20.10;61.65;100358.06;4469972;32;20167;-65
2022/05/13 02:14:40;;;;;;;8.43;1.87;;;;;;;20.09;60.14;100358.16;4470070;32;20561;-65
2022/05/13 02:17:07;;;;;;;3.20;2.28;;;;;;;20.12;58.30;100356.19;4470014;32;20419;-66
2022/05/13 02:19:34;;;;;;;2.15;1.90;;;;;;;20.21;59.08;100354.84;4469854;32;20152;-66
2022/05/13 02:22:02;;;;;;;3.28;2.00;;;;;;;20.18;60.77;100355.87;4469917;32;20561;-65
2022/05/13 02:24:29;;;;;;;2.92;1.80;;;;;;;20.15;59.35;100357.84;4469756;32;20421;-66
2022/05/13 02:26:56;;;;;;;2.12;1.62;;;;;;;20.26;57.94;100352.81;4470007;32;20104;-66
2022/05/13 02:29:23;;;;;;;2.65;1.70;;;;;;;20.37;58.14;100357.59;4469949;32;20099;-66
2022/05/13 02:31:50;;;;;;;1.80;1.70;;;;;;;20.34;59.10;100363.09;4469862;32;20100;-66
2022/05/13 02:34:18;;;;;;;2.10;1.62;;;;;;;20.26;58.95;100350.97;4469757;32;20696;-66
2022/05/13 02:36:45;;;;;;;2.25;1.90;;;;;;;20.21;59.14;100355.72;4470098;32;20091;-66
2022/05/13 02:39:12;;;;;;;3.85;1.65;;;;;;;20.21;59.07;100352.16;4469767;32;20123;-66
2022/05/13 02:41:41;;;;;;;1.73;1.62;;;;;;;20.20;58.57;100356.66;4469496;32;20817;-66
2022/05/13 02:44:08;;;;;;;7.55;1.87;;;;;;;20.24;57.97;100354.69;4469717;32;20486;-66
2022/05/13 02:46:41;;;;;;;2.08;1.65;;;;;;;20.21;58.11;100350.38;4470087;32;20085;-65
2022/05/13 02:49:09;;;;;;;1.65;1.55;;;;;;;20.15;58.27;100350.69;4469634;32;20100;-66
2022/05/13 02:51:36;;;;;;;2.60;1.83;;;;;;;20.08;58.81;100343.06;4469829;32;20092;-66
2022/05/13 02:54:04;;;;;;;3.10;1.70;;;;;;;19.99;58.91;100358.63;4469770;32;20145;-66
2022/05/13 02:56:31;;;;;;;2.35;1.70;;;;;;;19.99;59.11;100357.75;4469676;32;20160;-66
2022/05/13 02:58:58;;;;;;;3.60;1.70;;;;;;;19.96;60.14;100360.59;4469537;32;20084;-66
2022/05/13 03:01:26;;;;;;;2.50;1.60;;;;;;;19.93;60.89;100366.09;4469557;32;20531;-66
2022/05/13 03:03:53;;;;;;;4.90;1.85;;;;;;;19.85;60.79;100374.50;4469712;32;20105;-65
2022/05/13 03:06:21;;;;;;;4.68;1.87;;;;;;;19.80;61.12;100374.75;4469499;32;20373;-66
2022/05/13 03:08:48;;;;;;;5.12;2.15;;;;;;;19.78;61.13;100373.09;4469472;32;20711;-66
2022/05/13 03:11:16;;;;;;;2.03;1.90;;;;;;;19.81;60.94;100384.50;4469363;32;20100;-65
2022/05/13 03:13:43;;;;;;;5.47;1.55;;;;;;;19.85;61.19;100390.53;4469273;32;20561;-66
2022/05/13 03:16:15;;;;;;;3.67;2.20;;;;;;;19.91;61.12;100384.91;4469435;32;20216;-66
2022/05/13 03:18:42;;;;;;;2.72;2.12;;;;;;;19.96;60.91;100392.69;4469331;32;20142;-65
2022/05/13 03:21:10;;;;;;;3.90;1.87;;;;;;;20.01;61.05;100404.03;4469328;32;20093;-65
2022/05/13 03:23:43;;;;;;;4.60;2.20;;;;;;;19.98;60.06;100406.84;4469056;32;20565;-66
2022/05/13 03:26:12;;;;;;;2.70;2.10;;;;;;;19.95;62.29;100397.16;4469254;32;20493;-66
2022/05/13 03:28:41;;;;;;;2.37;2.17;;;;;;;19.94;61.01;100413.31;4469156;32;20156;-66
2022/05/13 03:31:09;;;;;;;2.30;2.10;;;;;;;19.92;61.81;100410.69;4469125;32;20123;-66
2022/05/13 03:33:36;;;;;;;3.20;2.00;;;;;;;19.85;61.44;100405.72;4469153;32;20089;-66
2022/05/13 03:36:05;;;;;;;1.85;1.75;;;;;;;20.01;60.58;100412.91;4469262;32;20141;-66
2022/05/13 03:38:32;;;;;;;2.00;1.90;;;;;;;20.08;59.89;100416.16;4469046;32;20111;-66
2022/05/13 03:40:59;;;;;;;2.40;2.20;;;;;;;20.16;59.57;100415.75;4469062;32;20494;-66
2022/05/13 03:43:26;;;;;;;3.58;2.03;;;;;;;20.21;59.52;100413.69;4469046;32;20180;-66
2022/05/13 03:45:53;;;;;;;2.08;1.73;;;;;;;20.25;59.65;100415.28;4468852;32;20080;-66
2022/05/13 03:48:21;;;;;;;3.58;1.90;;;;;;;20.33;59.04;100418.44;4454343;32;20439;-66
2022/05/13 03:50:48;;;;;;;2.20;2.05;;;;;;;20.37;59.15;100417.31;4468871;32;20180;-66
2022/05/13 03:53:15;;;;;;;4.32;2.15;;;;;;;20.44;58.58;100426.75;4469792;32;20549;-66
2022/05/13 03:55:42;;;;;;;2.72;1.90;;;;;;;20.52;57.83;100427.25;4471005;32;20111;-66
2022/05/13 03:58:10;;;;;;;2.33;2.12;;;;;;;20.65;57.90;100426.63;4470801;32;20120;-66
2022/05/13 04:00:37;;;;;;;3.92;2.17;;;;;;;20.88;57.86;100431.59;4471101;32;20096;-66
2022/05/13 04:03:05;;;;;;;2.35;1.85;;;;;;;20.88;57.52;100428.91;4471016;32;20167;-65
2022/05/13 04:11:04;;;;;;;12.07;2.10;;;;;;;20.94;58.26;100423.22;4470971;32;20080;-66
2022/05/13 04:16:17;;;;;;;12.55;2.72;;;;;;;20.81;59.20;100408.75;4471047;32;20080;-66
2022/05/13 04:18:47;;;;;;;2.10;1.98;;;;;;;20.75;59.79;100427.88;4470780;32;20179;-65
2022/05/13 04:21:24;;;;;;;5.80;2.40;;;;;;;20.72;60.69;100417.31;4466800;32;126649;-66
2022/05/13 04:23:54;;;;;;;2.05;1.95;;;;;;;20.63;61.11;100410.63;4470636;32;20114;-66
2022/05/13 04:26:21;;;;;;;4.00;2.03;;;;;;;20.66;61.45;100412.28;4470748;32;20383;-66
2022/05/13 04:28:50;;;;;;;5.22;2.80;;;;;;;20.58;61.73;100415.38;4470829;32;20119;-66
2022/05/13 04:31:21;;;;;;;3.42;2.55;;;;;;;20.42;63.46;100425.09;4456142;32;20134;-66
2022/05/13 04:33:49;;;;;;;2.33;2.10;;;;;;;20.26;65.26;100427.72;4470683;32;20085;-66
2022/05/13 04:36:17;;;;;;;4.53;2.37;;;;;;;20.14;65.85;100426.53;4470649;32;20796;-66
2022/05/13 04:38:45;;;;;;;4.18;2.90;;;;;;;20.05;67.09;100427.00;4470693;32;20179;-66
2022/05/13 04:44:01;;;;;;;2.87;2.33;;;;;;;19.87;68.79;100430.59;4470906;32;20072;-66
2022/05/13 04:46:28;;;;;;;6.28;2.12;;;;;;;19.97;68.66;100424.72;4470744;32;20091;-66
2022/05/13 04:48:55;;;;;;;4.05;2.25;;;;;;;19.97;68.38;100419.38;4470512;32;20169;-66
2022/05/13 04:51:22;;;;;;;6.78;2.35;;;;;;;19.97;68.67;100418.50;4470820;32;20096;-65
2022/05/13 04:53:52;;;;;;;3.95;2.40;;;;;;;20.02;68.26;100411.97;4470452;32;20111;-66
2022/05/13 04:56:20;;;;;;;2.97;2.25;;;;;;;20.05;67.80;100414.47;4470589;32;20183;-66
2022/05/13 04:58:48;;;;;;;4.25;2.40;;;;;;;20.12;67.66;100425.75;4470525;32;20172;-66
2022/05/13 05:01:17;;;;;;;7.70;1.95;;;;;;;20.20;67.03;100433.37;4470476;32;20105;-66
2022/05/13 05:03:45;;;;;;;3.53;2.28;;;;;;;20.24;66.65;100437.63;4470252;32;20084;-66
2022/05/13 05:06:13;;;;;;;2.65;2.03;;;;;;;20.21;67.01;100441.34;4470476;32;20084;-66
2022/05/13 05:08:41;;;;;;;5.55;2.40;;;;;;;20.17;67.38;100453.13;4470619;32;20127;-66
2022/05/13 05:11:10;;;;;;;3.00;2.55;;;;;;;20.19;67.56;100459.28;4470442;32;20100;-66
2022/05/13 05:13:41;;;;;;;3.78;2.50;;;;;;;20.15;68.26;100473.75;4470386;32;20105;-66
2022/05/13 05:16:09;;;;;;;3.87;2.28;;;;;;;20.23;67.89;100463.50;4470512;32;20088;-66
2022/05/13 05:18:38;;;;;;;5.37;2.30;;;;;;;20.17;69.00;100460.28;4470462;32;20131;-66
2022/05/13 05:21:07;;;;;;;3.80;2.50;;;;;;;20.21;68.62;100464.53;4470276;32;20101;-65
2022/05/13 05:23:36;;;;;;;3.37;2.70;;;;;;;20.20;69.04;100465.47;4470162;32;20131;-66
2022/05/13 05:26:04;;;;;;;2.87;2.58;;;;;;;20.21;69.68;100470.78;4455666;32;20092;-66
2022/05/13 05:28:32;;;;;;;7.30;3.00;;;;;;;20.32;69.64;100480.94;4470211;32;20100;-66
2022/05/13 05:31:02;;;;;;;8.30;2.28;;;;;;;20.39;69.32;100477.00;4470357;32;20171;-66
2022/05/13 05:33:29;;;;;;;7.32;2.35;;;;;;;20.50;69.03;100482.69;4470257;32;20106;-66
2022/05/13 05:35:57;;;;;;;11.90;2.55;;;;;;;20.66;67.73;100484.56;4470035;32;20171;-66
2022/05/13 05:38:24;;;;;;;3.35;2.37;;;;;;;20.88;67.72;100486.97;4470047;32;20124;-66
2022/05/13 05:40:52;;;;;;;2.97;2.70;;;;;;;20.94;66.42;100492.00;4470147;32;20092;-66
2022/05/13 05:43:21;;;;;;;5.78;2.12;;;;;;;21.09;65.69;100487.66;4455678;32;20092;-66
2022/05/13 05:45:49;;;;;;;9.45;2.40;;;;;;;21.26;65.40;100490.28;4470123;32;20153;-66
2022/05/13 05:48:22;;;;;;;19.70;2.87;;;;;;;21.41;63.97;100500.22;4470226;32;20509;-66
2022/05/13 05:50:55;;;;;;;2.30;1.95;;;;;;;21.56;63.60;100498.50;4455822;32;20176;-66
2022/05/13 05:58:57;;;;;;;7.45;1.87;;;;;;;22.08;58.50;100500.00;4470270;32;20007;-66
2022/05/13 06:01:24;;;;;;;7.93;1.80;;;;;;;22.45;57.56;100501.47;4469978;32;20164;-66
2022/05/13 06:03:52;;;;;;;1.50;1.40;;;;;;;22.69;55.82;100509.00;4469995;32;20076;-66
2022/05/13 06:06:19;;;;;;;4.25;1.87;;;;;;;22.84;55.78;100514.31;4470258;32;20096;-66
2022/05/13 06:08:46;;;;;;;7.80;2.10;;;;;;;22.81;55.63;100514.50;4470190;32;20127;-66
2022/05/13 06:11:14;;;;;;;2.78;1.62;;;;;;;22.77;56.18;100514.78;4469815;32;20163;-66
2022/05/13 06:13:41;;;;;;;2.92;1.80;;;;;;;22.71;56.56;100518.69;4469835;32;20080;-66
2022/05/13 06:16:09;;;;;;;7.95;1.92;;;;;;;22.83;56.87;100525.16;4469056;32;20118;-66
2022/05/13 06:18:37;;;;;;;3.83;1.80;;;;;;;22.76;56.55;100526.50;4469817;32;20284;-66
2022/05/13 06:21:05;;;;;;;2.58;1.92;;;;;;;22.82;56.24;100528.78;4469790;32;20088;-66
2022/05/13 06:23:32;;;;;;;2.05;1.95;;;;;;;22.89;56.30;100524.75;4469749;32;20096;-66
2022/05/13 06:26:00;;;;;;;2.15;1.85;;;;;;;22.96;57.03;100525.28;4470181;32;20514;-66
2022/05/13 06:28:28;;;;;;;2.62;1.87;;;;;;;23.02;56.19;100532.97;4469851;32;20120;-66
2022/05/13 06:30:55;;;;;;;1.85;1.75;;;;;;;23.06;56.03;100531.84;4469895;32;20565;-66
2022/05/13 06:33:23;;;;;;;8.40;2.05;;;;;;;23.19;55.36;100522.06;4469733;32;20405;-66
2022/05/13 06:35:50;;;;;;;4.05;1.62;;;;;;;23.23;54.77;100514.66;4469890;32;20443;-66
2022/05/13 06:38:22;;;;;;;2.72;1.75;;;;;;;23.50;54.67;100523.69;4469852;32;20128;-66
2022/05/13 06:40:52;;;;;;;2.22;1.60;;;;;;;23.73;51.00;100516.84;4470088;32;20526;-66
2022/05/13 06:43:20;;;;;;;3.37;1.40;;;;;;;24.02;51.84;100516.78;4469918;32;20091;-66
2022/05/13 06:45:48;;;;;;;1.98;1.65;;;;;;;24.12;48.32;100519.75;4469660;32;20801;-66
2022/05/13 06:48:16;;;;;;;21.17;16.87;;;;;;;23.99;45.96;100508.91;4469598;32;20521;-66
2022/05/13 06:50:46;;;;;;;4.45;4.05;;;;;;;24.10;46.18;100506.41;4469643;32;20097;-66
2022/05/13 06:53:14;;;;;;;16.23;2.20;;;;;;;24.19;45.13;100519.22;4469489;32;20813;-66
2022/05/13 06:55:44;;;;;;;2.12;1.92;;;;;;;24.21;44.19;100520.00;4469668;32;20460;-66
2022/05/13 06:58:12;;;;;;;4.05;1.60;;;;;;;24.42;43.90;100519.56;4469509;32;20112;-66
2022/05/13 07:00:40;;;;;;;4.82;1.45;;;;;;;24.64;43.40;100522.53;4469572;32;20092;-66
2022/05/13 07:03:12;;;;;;;3.83;1.75;;;;;;;24.94;42.12;100535.69;4469625;32;20114;-66
2022/05/13 07:05:40;;;;;;;5.37;1.40;;;;;;;25.26;42.76;100530.78;4469713;32;20141;-66
2022/05/13 07:08:08;;;;;;;3.25;1.77;;;;;;;25.54;43.93;100539.59;4469414;32;20623;-66
2022/05/13 07:10:38;;;;;;;4.22;1.60;;;;;;;25.61;45.65;100543.56;4469351;32;20092;-66
2022/05/13 07:13:07;;;;;;;5.22;2.00;;;;;;;25.61;44.32;100543.56;4469402;32;20106;-66
2022/05/13 07:15:34;;;;;;;2.97;1.73;;;;;;;25.41;47.04;100549.56;4469259;32;20496;-66
2022/05/13 07:18:02;;;;;;;2.83;1.58;;;;;;;25.61;46.61;100546.28;4469145;32;20105;-66
2022/05/13 07:20:32;;;;;;;4.53;1.80;;;;;;;25.81;45.71;100546.72;4469199;32;20092;-66
2022/05/13 07:22:59;;;;;;;3.87;1.48;;;;;;;25.83;44.88;100552.84;4469000;32;20441;-66
2022/05/13 07:25:27;;;;;;;3.15;1.70;;;;;;;25.92;45.42;100549.47;4468987;32;20100;-66
2022/05/13 07:27:54;;;;;;;4.53;1.85;;;;;;;25.72;46.37;100534.69;4470449;32;20144;-66
2022/05/13 07:30:21;;;;;;;6.37;1.80;;;;;;;25.39;46.73;100532.59;4471047;32;20105;-66
2022/05/13 07:32:49;;;;;;;1.92;1.70;;;;;;;25.29;45.34;100532.41;4471303;32;20100;-66
2022/05/13 07:35:16;;;;;;;1.77;1.67;;;;;;;25.45;45.99;100534.88;4470955;32;20451;-66
2022/05/13 07:37:43;;;;;;;3.72;1.40;;;;;;;25.94;44.83;100536.75;4471261;32;20156;-67
2022/05/13 07:42:57;;;;;;;5.57;2.10;;;;;;;26.45;42.05;100533.81;4471020;32;20159;-66
2022/05/13 07:45:25;;;;;;;3.67;2.22;;;;;;;26.85;41.02;100525.37;4471012;32;20412;-67
2022/05/13 07:47:53;;;;;;;2.12;1.67;;;;;;;27.00;40.17;100536.81;4470917;32;20093;-66
2022/05/13 07:50:21;;;;;;;1.40;1.10;;;;;;;26.98;39.98;100534.25;4471046;32;20084;-66
2022/05/13 07:52:50;;;;;;;1.02;1.02;;;;;;;27.16;38.85;100531.97;4470923;32;20118;-66
2022/05/13 07:55:19;;;;;;;1.00;1.00;;;;;;;26.98;39.33;100539.66;4471012;32;20089;-66
2022/05/13 07:57:47;;;;;;;2.25;1.52;;;;;;;27.07;40.22;100543.50;4471034;32;20197;-66
2022/05/13 08:00:26;;;;;;;2.95;1.10;;;;;;;27.17;39.87;100545.41;4470937;32;20092;-66
2022/05/13 08:03:09;;;;;;;2.45;1.40;;;;;;;26.55;40.73;100553.78;4470996;32;20553;-66
2022/05/13 08:05:42;;;;;;;2.55;1.20;;;;;;;25.96;42.29;100559.06;4471092;32;20404;-66
2022/05/13 08:08:11;;;;;;;2.00;1.15;;;;;;;25.72;43.55;100553.59;4470771;32;20210;-66
2022/05/13 08:10:40;;;;;;;2.22;1.50;;;;;;;25.61;43.76;100557.06;4471067;32;20104;-66
2022/05/13 08:13:07;;;;;;;6.10;1.60;;;;;;;25.61;44.58;100565.16;4470964;32;20119;-66
2022/05/13 08:15:35;;;;;;;3.80;1.30;;;;;;;25.41;44.32;100565.75;4470557;32;20641;-66
2022/05/13 08:18:02;;;;;;;1.27;1.20;;;;;;;25.06;44.15;100560.09;4471001;32;20124;-66
2022/05/13 08:20:31;;;;;;;7.12;1.33;;;;;;;25.08;44.98;100568.94;4470994;32;20167;-66
2022/05/13 08:22:58;;;;;;;4.25;1.60;;;;;;;25.08;45.61;100577.03;4470710;32;20148;-66
2022/05/13 08:25:26;;;;;;;2.87;1.85;;;;;;;24.81;47.16;100588.75;4470652;32;20439;-66
2022/05/13 08:27:53;;;;;;;1.70;1.60;;;;;;;24.48;48.02;100587.34;4470868;32;20120;-66
2022/05/13 08:30:20;;;;;;;5.87;1.80;;;;;;;24.46;48.44;100586.59;4470656;32;20537;-66
2022/05/13 08:32:48;;;;;;;3.28;1.70;;;;;;;24.39;49.72;100584.38;4470828;32;20122;-66
2022/05/13 08:35:16;;;;;;;1.77;1.30;;;;;;;24.80;48.42;100589.69;4470739;32;20083;-66
2022/05/13 08:37:48;;;;;;;13.75;1.80;;;;;;;24.70;48.86;100585.87;4456118;32;20154;-66
2022/05/13 08:40:22;;;;;;;6.80;1.80;;;;;;;24.72;48.29;100595.59;4470306;32;20100;-66
2022/05/13 08:42:50;;;;;;;3.40;2.30;;;;;;;24.34;49.36;100593.59;4470574;32;20498;-66
2022/05/13 08:45:20;;;;;;;1.55;1.48;;;;;;;24.09;48.99;100582.72;4470467;32;20083;-66
2022/05/13 08:47:56;;;;;;;4.55;1.50;;;;;;;24.34;48.72;100580.13;4470511;32;20097;-66
2022/05/13 08:50:38;;;;;;;3.25;3.03;;;;;;;24.65;48.26;100588.91;4470657;32;20459;-66
2022/05/13 08:53:24;;;;;;;14.10;2.62;;;;;;;25.25;46.30;100587.53;4470511;32;20076;-66
2022/05/13 08:55:59;;;;;;;3.35;1.58;;;;;;;25.17;46.61;100576.41;4470502;32;20135;-66
2022/05/13 08:59:02;;;;;;;2.30;1.50;;;;;;;25.60;46.08;100579.63;4470347;32;20088;-66
2022/05/13 09:01:36;;;;;;;3.15;1.48;;;;;;;25.98;45.25;100571.50;4446049;32;20160;-66
2022/05/13 09:04:09;;;;;;;2.33;1.62;;;;;;;25.64;45.77;100569.50;4470508;32;20723;-66
2022/05/13 09:06:54;;;;;;;1.90;1.80;;;;;;;25.16;46.95;100572.87;4442191;32;20160;-66
2022/05/13 09:09:21;;;;;;;2.90;1.73;;;;;;;24.95;47.22;100575.19;4470394;32;20092;-66
2022/05/13 09:12:17;;;;;;;4.25;1.40;;;;;;;25.15;47.41;100571.12;4470415;32;20092;-66
2022/05/13 09:14:52;;;;;;;5.35;1.50;;;;;;;25.73;47.32;100563.44;4470369;32;20519;-66
2022/05/13 09:17:32;;;;;;;2.80;1.42;;;;;;;26.73;45.45;100565.03;4470291;32;20089;-66
2022/05/13 09:19:59;;;;;;;2.85;1.58;;;;;;;27.07;44.15;100560.59;4455668;32;20101;-66
2022/05/13 09:22:39;;;;;;;3.92;1.90;;;;;;;27.00;43.30;100555.75;4470279;32;20482;-66
2022/05/13 09:25:13;;;;;;;1.80;1.70;;;;;;;27.50;42.01;100551.81;4468411;32;20084;-66
2022/05/13 09:27:56;;;;;;;3.65;1.60;;;;;;;27.15;43.44;100549.19;4470547;32;20097;-66
2022/05/13 09:30:32;;;;;;;5.15;1.73;;;;;;;27.34;43.34;100541.34;4470292;32;20726;-66
2022/05/13 09:33:20;;;;;;;3.37;1.40;;;;;;;26.58;42.92;100555.41;4470445;32;20131;-66
2022/05/13 09:35:50;;;;;;;1.62;1.45;;;;;;;26.85;43.69;100550.56;4470207;32;20072;-66
2022/05/13 09:38:21;;;;;;;3.05;1.48;;;;;;;27.10;42.53;100548.66;4469781;32;20399;-66
2022/05/13 09:41:08;;;;;;;5.68;1.83;;;;;;;27.32;42.17;100558.69;4470302;32;20088;-66
2022/05/13 09:43:37;;;;;;;5.53;1.70;;;;;;;27.11;41.83;100559.37;4470555;32;20142;-66
2022/05/13 09:46:08;;;;;;;3.47;1.70;;;;;;;27.29;41.92;100551.66;4470215;32;20084;-65
2022/05/13 09:48:39;;;;;;;5.55;1.60;;;;;;;26.83;42.84;100548.97;4470191;32;20804;-66
2022/05/13 09:51:35;;;;;;;3.62;1.62;;;;;;;26.80;43.61;100557.31;4468977;32;20092;-66
2022/05/13 09:54:11;;;;;;;7.32;2.03;;;;;;;26.79;43.34;100561.00;4470111;32;20521;-66
2022/05/13 09:56:46;;;;;;;3.25;1.52;;;;;;;26.73;43.60;100562.34;4470064;32;20080;-66
2022/05/13 09:59:21;;;;;;;2.62;1.52;;;;;;;26.42;44.47;100569.16;4470300;32;20080;-66
2022/05/13 10:01:49;;;;;;;1.67;1.58;;;;;;;26.44;44.92;100568.09;4470180;32;20092;-66
2022/05/13 10:04:26;;;;;;;1.30;1.30;;;;;;;26.55;44.81;100566.44;4470069;32;20123;-66
2022/05/13 10:07:06;;;;;;;1.73;1.60;;;;;;;26.67;44.47;100563.66;4470115;32;20111;-66
2022/05/13 10:15:25;;;;;;;1.83;1.70;;;;;;;27.39;43.69;100543.69;4470113;32;20101;-66
2022/05/13 10:17:57;;;;;;;2.30;1.50;;;;;;;28.33;42.22;100545.91;4470244;32;20072;-66
2022/05/13 10:20:33;;;;;;;5.55;1.75;;;;;;;28.29;41.71;100549.84;4470061;32;20151;-66
2022/05/13 10:23:07;;;;;;;5.62;1.67;;;;;;;28.42;42.39;100547.03;4469971;32;20716;-66
2022/05/13 10:25:52;;;;;;;4.65;1.80;;;;;;;29.02;40.79;100547.38;4469932;32;20104;-66
2022/05/13 10:28:26;;;;;;;1.67;1.42;;;;;;;28.41;42.22;100544.41;4469871;32;20514;-66
2022/05/13 10:31:09;;;;;;;3.08;1.83;;;;;;;28.94;41.26;100538.97;4469878;32;20080;-66
2022/05/13 10:33:52;;;;;;;3.10;1.70;;;;;;;29.42;40.49;100536.56;4469636;32;20126;-66
2022/05/13 10:36:48;;;;;;;5.07;1.87;;;;;;;28.93;40.33;100529.13;4469683;32;20142;-66
2022/05/13 10:39:44;;;;;;;3.90;1.65;;;;;;;28.47;42.08;100524.94;4469733;32;20420;-66
2022/05/13 10:42:34;;;;;;;3.37;1.67;;;;;;;28.60;41.57;100525.63;4469822;32;20614;-66
2022/05/13 10:45:27;;;;;;;3.87;1.67;;;;;;;28.64;41.83;100526.22;4469533;32;20153;-66
2022/05/13 10:48:01;;;;;;;1.85;1.35;;;;;;;28.70;41.19;100523.84;4455275;32;20115;-66
2022/05/13 10:50:49;;;;;;;3.25;1.87;;;;;;;29.00;40.75;100531.22;4469679;32;20694;-66
2022/05/13 10:53:55;;;;;;;1.73;1.42;;;;;;;28.98;40.41;100526.91;4469706;32;20506;-66
2022/05/13 10:56:26;;;;;;;5.87;1.70;;;;;;;28.15;40.86;100514.94;4429478;32;20097;-66
2022/05/13 10:59:20;;;;;;;3.80;1.52;;;;;;;27.45;42.14;100521.53;4469417;32;20108;-66
2022/05/13 11:02:02;;;;;;;1.80;1.70;;;;;;;27.84;41.49;100516.59;4469045;32;20080;-66
2022/05/13 11:04:40;;;;;;;1.60;1.55;;;;;;;28.33;40.84;100512.53;4469498;32;20112;-66
2022/05/13 11:07:28;;;;;;;1.50;1.40;;;;;;;28.62;41.04;100504.66;4469680;32;20144;-66
2022/05/13 11:10:27;;;;;;;3.72;2.10;;;;;;;29.40;38.35;100518.69;4469606;32;20095;-66
2022/05/13 11:13:13;;;;;;;1.83;1.73;;;;;;;29.30;38.51;100513.25;4469573;32;20084;-66
2022/05/13 11:16:08;;;;;;;8.55;1.70;;;;;;;29.21;39.27;100514.91;4469426;32;20462;-66
2022/05/13 11:18:47;;;;;;;5.07;1.80;;;;;;;28.64;40.52;100510.81;4469450;32;20148;-66
2022/05/13 11:22:01;;;;;;;7.57;1.73;;;;;;;29.44;39.10;100509.31;4469544;32;20182;-66
2022/05/13 11:28:08;;;;;;;3.75;1.48;;;;;;;30.11;36.52;100508.66;4469246;32;20104;-66
2022/05/13 11:30:42;;;;;;;3.60;1.40;;;;;;;29.88;36.98;100507.19;4454602;32;20400;-66
2022/05/13 11:33:19;;;;;;;6.22;1.45;;;;;;;30.85;35.39;100497.25;4469479;32;20123;-66
2022/05/13 11:36:09;;;;;;;1.20;1.10;;;;;;;32.04;32.16;100494.75;4469393;32;20138;-67
2022/05/13 11:38:54;;;;;;;3.03;1.58;;;;;;;32.84;31.48;100493.78;4469009;32;20567;-66
2022/05/13 11:41:23;;;;;;;1.75;1.02;;;;;;;32.88;31.09;100488.84;4468491;32;20085;-66
2022/05/13 11:44:12;;;;;;;2.30;1.65;;;;;;;33.67;30.22;100508.78;4468948;32;20084;-66
2022/05/13 11:46:52;;;;;;;4.07;1.50;;;;;;;33.16;30.34;100489.56;4468794;32;20119;-66
2022/05/13 11:49:29;;;;;;;6.40;1.92;;;;;;;32.40;31.43;100494.75;4468696;32;20111;-67
2022/05/13 11:52:22;;;;;;;9.73;1.60;;;;;;;33.20;30.96;100495.56;4468763;32;20104;-67
2022/05/13 11:55:12;;;;;;;5.05;1.75;;;;;;;33.16;31.31;100491.44;4468552;32;20108;-66
2022/05/13 11:57:53;;;;;;;3.22;1.60;;;;;;;33.74;30.41;100486.09;4468790;32;20080;-67
2022/05/13 12:00:36;;;;;;;13.55;2.17;;;;;;;34.38;29.35;100489.13;4468747;32;20148;-67
2022/05/13 12:03:23;;;;;;;1.92;1.52;;;;;;;34.94;27.84;100492.91;4468773;32;20410;-67
2022/05/13 12:06:09;;;;;;;2.20;1.52;;;;;;;35.50;27.34;100489.34;4468918;32;20164;-67
2022/05/13 12:08:36;;;;;;;4.30;1.52;;;;;;;35.15;27.96;100486.03;4454212;32;20119;-67
2022/05/13 12:11:09;;;;;;;3.53;1.52;;;;;;;32.90;31.09;100492.28;4468822;32;20100;-67
2022/05/13 12:14:10;;;;;;;10.02;1.60;;;;;;;31.32;33.95;100493.69;4469030;32;20153;-67
2022/05/13 12:17:01;;;;;;;2.00;1.50;;;;;;;30.65;35.39;100487.34;4470996;32;20088;-67